Weather at Bunyip Airport

Public forecast

Using degrees Celsius for public forecast. Weather courtesy of forecast.io.

Closest aviation weather report (METAR) to Bunyip Airport

Closest report is Melbourne Essendon Airport, 43.8 nm (81.1 km) WNW. Retrieved 2021/03/04 15:00 UTC (2 hours ago):

YMEN 041500Z AUTO 21012KT 9999 // OVC032 15/12 Q1013

Closest aviation forecast (TAF) to Bunyip Airport

Forecast is more than 6 hours old.

Closest forecast is Melbourne International Airport, 47.7 nm (88.3 km) WNW. Retrieved 2021/03/04 09:39 UTC (7 hours ago):

TAF YMML 040801Z 0409/0512 22010KT 9999 BKN020 FM041200 21010KT 9999 -SHRA FEW010 BKN018 FM041800 20012KT 9999 NSW BKN020 FM042100 19014KT 9999 BKN030 TEMPO 0412/0416 5000 SHRA SCT010 BKN015